Time;durP1;ratioP1;P1;durP2;ratioP2;P2;SDS_P1;SDS_P2;PMS_P1;PMS_P2;Temp;Humidity;BMP_temperature;BMP_pressure;BME280_temperature;BME280_humidity;BME280_pressure;Samples;Min_cycle;Max_cycle;Signal;HPM_P1;HPM_P2
2021/12/25 00:00:20;;;;;;;6.53;5.03;;;;;;;5.18;100.00;99670.81;845239;23;722;-57
2021/12/25 00:00:40;;;;;;;6.43;5.20;;;;;;;5.20;100.00;99676.84;845203;23;864;-52
2021/12/25 00:01:04;;;;;;;6.47;5.33;;;;;;;5.22;100.00;99669.06;844574;23;879;-53
2021/12/25 00:01:24;;;;;;;7.10;5.32;;;;;;;5.23;100.00;99675.97;845880;23;915;-53
2021/12/25 00:01:46;;;;;;;7.30;5.40;;;;;;;5.24;100.00;99672.53;848580;23;895;-55
2021/12/25 00:02:08;;;;;;;7.35;5.53;;;;;;;5.21;100.00;99673.41;845398;23;4571;-57
2021/12/25 00:02:29;;;;;;;8.05;6.07;;;;;;;5.16;100.00;99674.25;845650;23;859;-53
2021/12/25 00:02:49;;;;;;;8.23;6.55;;;;;;;5.12;100.00;99673.38;844827;23;903;-56
2021/12/25 00:03:09;;;;;;;7.47;5.73;;;;;;;5.10;100.00;99675.97;844358;23;941;-54
2021/12/25 00:03:30;;;;;;;7.22;5.50;;;;;;;5.09;100.00;99673.38;843803;23;769;-54
2021/12/25 00:03:53;;;;;;;6.63;5.10;;;;;;;5.06;100.00;99676.81;846198;23;911;-54
2021/12/25 00:04:14;;;;;;;7.55;5.97;;;;;;;5.06;100.00;99673.38;843919;23;943;-56
2021/12/25 00:04:35;;;;;;;6.77;5.40;;;;;;;5.02;100.00;99672.50;844895;23;745;-55
2021/12/25 00:04:55;;;;;;;6.85;5.30;;;;;;;5.07;100.00;99675.97;843701;23;4337;-53
2021/12/25 00:05:16;;;;;;;7.05;5.55;;;;;;;5.07;100.00;99665.59;844242;23;986;-56
2021/12/25 00:05:37;;;;;;;7.00;5.43;;;;;;;5.08;100.00;99679.41;845286;23;808;-57
2021/12/25 00:05:57;;;;;;;7.00;5.30;;;;;;;5.08;100.00;99677.69;846036;23;876;-55
2021/12/25 00:06:19;;;;;;;7.47;5.78;;;;;;;5.10;100.00;99673.38;845856;23;860;-55
2021/12/25 00:06:40;;;;;;;7.85;6.10;;;;;;;5.10;100.00;99670.78;845153;23;820;-54
2021/12/25 00:07:01;;;;;;;9.65;7.32;;;;;;;5.10;100.00;99681.16;845419;23;927;-54
2021/12/25 00:07:21;;;;;;;10.73;8.38;;;;;;;5.07;100.00;99673.38;845059;23;888;-54
2021/12/25 00:07:42;;;;;;;13.33;9.20;;;;;;;5.07;100.00;99673.38;844644;23;729;-54
2021/12/25 00:08:03;;;;;;;11.10;8.43;;;;;;;5.07;100.00;99680.28;843094;23;4386;-55
2021/12/25 00:08:25;;;;;;;10.82;8.13;;;;;;;5.06;100.00;99673.38;845178;23;888;-54
2021/12/25 00:08:45;;;;;;;12.50;9.35;;;;;;;5.07;100.00;99678.56;845512;23;954;-52
2021/12/25 00:09:06;;;;;;;13.57;10.25;;;;;;;5.07;100.00;99675.97;845373;23;934;-52
2021/12/25 00:09:26;;;;;;;14.30;10.43;;;;;;;5.05;100.00;99677.69;844361;23;765;-56
2021/12/25 00:09:47;;;;;;;13.65;9.77;;;;;;;5.05;100.00;99675.13;844890;23;884;-53
2021/12/25 00:10:09;;;;;;;12.37;9.00;;;;;;;5.06;100.00;99676.81;845518;23;823;-57
2021/12/25 00:10:30;;;;;;;11.80;9.05;;;;;;;5.05;100.00;99677.69;845592;23;845;-57
2021/12/25 00:10:51;;;;;;;11.75;8.60;;;;;;;5.06;100.00;99676.81;844544;23;954;-52
2021/12/25 00:11:13;;;;;;;11.63;8.70;;;;;;;5.04;100.00;99675.97;842625;23;5134;-55
2021/12/25 00:11:33;;;;;;;12.35;9.43;;;;;;;5.02;100.00;99672.50;844536;23;1365;-55
2021/12/25 00:11:54;;;;;;;11.57;8.75;;;;;;;5.03;100.00;99679.41;847124;23;1086;-53
2021/12/25 00:12:14;;;;;;;10.82;8.77;;;;;;;5.01;100.00;99677.66;849518;23;780;-55
2021/12/25 00:12:34;;;;;;;10.83;8.60;;;;;;;4.99;100.00;99675.09;847989;23;875;-55
2021/12/25 00:12:55;;;;;;;12.13;9.13;;;;;;;5.00;100.00;99675.94;847664;23;940;-54
2021/12/25 00:13:18;;;;;;;11.50;8.80;;;;;;;5.00;100.00;99665.56;848559;23;725;-54
2021/12/25 00:13:39;;;;;;;11.68;8.60;;;;;;;5.01;100.00;99672.50;848350;23;920;-54
2021/12/25 00:14:00;;;;;;;11.60;8.50;;;;;;;5.01;100.00;99665.59;843480;23;4398;-56
2021/12/25 00:14:22;;;;;;;11.33;8.40;;;;;;;5.01;100.00;99669.91;844195;23;883;-56
2021/12/25 00:14:42;;;;;;;11.23;7.90;;;;;;;4.99;100.00;99672.50;845639;23;866;-57
2021/12/25 00:15:04;;;;;;;10.75;7.95;;;;;;;4.97;100.00;99674.22;845391;23;883;-55
2021/12/25 00:15:24;;;;;;;9.95;7.93;;;;;;;4.95;100.00;99673.34;844001;23;931;-56
2021/12/25 00:15:46;;;;;;;10.23;7.40;;;;;;;4.95;100.00;99671.59;845625;23;915;-53
2021/12/25 00:16:07;;;;;;;10.80;7.75;;;;;;;4.98;100.00;99670.75;845812;23;863;-52
2021/12/25 00:16:28;;;;;;;10.82;8.02;;;;;;;5.00;100.00;99675.94;844857;23;982;-56
2021/12/25 00:16:48;;;;;;;10.07;7.97;;;;;;;5.01;100.00;99670.78;845425;23;884;-56
2021/12/25 00:17:09;;;;;;;11.00;8.00;;;;;;;5.03;100.00;99673.38;837969;23;4567;-56
2021/12/25 00:17:29;;;;;;;10.77;8.00;;;;;;;5.00;100.00;99662.97;841366;23;887;-53
2021/12/25 00:17:50;;;;;;;10.23;7.73;;;;;;;5.02;100.00;99667.31;840449;23;950;-57
2021/12/25 00:18:10;;;;;;;9.93;7.97;;;;;;;5.03;100.00;99669.06;841353;23;757;-56
2021/12/25 00:18:30;;;;;;;11.13;9.47;;;;;;;5.05;100.00;99672.53;841027;23;860;-56
2021/12/25 00:18:51;;;;;;;11.82;10.10;;;;;;;5.07;100.00;99675.97;842606;23;951;-53
2021/12/25 00:19:11;;;;;;;13.87;11.50;;;;;;;5.03;100.00;99668.19;842527;23;1121;-57
2021/12/25 00:19:32;;;;;;;16.10;13.25;;;;;;;5.01;100.00;99673.38;844359;23;875;-55
2021/12/25 00:19:53;;;;;;;17.67;14.83;;;;;;;4.98;100.00;99665.56;844179;23;4340;-58
2021/12/25 00:20:14;;;;;;;16.35;13.57;;;;;;;5.00;100.00;99670.75;844414;23;1027;-53
2021/12/25 00:20:34;;;;;;;15.73;12.82;;;;;;;5.00;100.00;99666.47;843774;23;904;-53
2021/12/25 00:20:55;;;;;;;16.05;13.35;;;;;;;4.98;100.00;99665.56;844972;23;840;-52
2021/12/25 00:21:15;;;;;;;14.57;12.70;;;;;;;4.97;100.00;99668.16;843987;23;904;-56
2021/12/25 00:21:36;;;;;;;14.98;13.38;;;;;;;4.97;100.00;99669.06;844770;23;1010;-55
2021/12/25 00:21:56;;;;;;;15.13;12.93;;;;;;;4.97;100.00;99668.16;843348;23;821;-57
2021/12/25 00:22:17;;;;;;;14.93;12.47;;;;;;;4.98;100.00;99668.16;845078;23;864;-55
2021/12/25 00:22:37;;;;;;;15.10;12.65;;;;;;;4.94;100.00;99664.72;845939;23;788;-55
2021/12/25 00:23:00;;;;;;;14.03;11.13;;;;;;;4.94;100.00;99669.03;842571;23;4589;-55
2021/12/25 00:23:21;;;;;;;12.73;9.77;;;;;;;4.93;100.00;99667.31;844886;23;990;-57
2021/12/25 00:23:42;;;;;;;12.70;9.93;;;;;;;4.92;100.00;99666.44;843922;23;768;-54
2021/12/25 00:24:03;;;;;;;11.82;9.43;;;;;;;4.93;100.00;99672.50;844064;23;912;-55
2021/12/25 00:24:24;;;;;;;13.30;10.57;;;;;;;4.94;100.00;99669.03;843786;23;863;-56
2021/12/25 00:24:45;;;;;;;14.57;12.20;;;;;;;4.93;100.00;99664.72;844862;23;1944;-55
2021/12/25 00:25:06;;;;;;;13.60;11.68;;;;;;;4.92;100.00;99678.53;845880;23;989;-53
2021/12/25 00:25:27;;;;;;;12.60;10.65;;;;;;;4.93;100.00;99675.09;844939;23;922;-55
2021/12/25 00:25:54;;;;;;;11.10;9.05;;;;;;;4.92;100.00;99665.56;844224;23;994;-53
2021/12/25 00:26:35;;;;;;;9.43;7.18;;;;;;;4.91;100.00;99669.88;843061;23;5152;-55
2021/12/25 00:27:11;;;;;;;9.50;7.38;;;;;;;4.92;100.00;99675.94;845575;23;1853;-57
2021/12/25 00:29:06;;;;;;;11.10;7.32;;;;;;;4.95;100.00;99671.59;847133;23;4260;-56
2021/12/25 00:29:57;;;;;;;10.18;6.95;;;;;;;4.92;100.00;99673.34;842538;23;859;-53
2021/12/25 00:30:31;;;;;;;9.82;7.35;;;;;;;4.94;100.00;99669.91;835651;23;915;-53
2021/12/25 00:31:46;;;;;;;9.70;7.15;;;;;;;4.99;100.00;99675.09;839893;23;2280;-52
2021/12/25 00:33:00;;;;;;;9.33;7.00;;;;;;;5.13;100.00;99669.94;835833;23;1250;-54
2021/12/25 00:33:48;;;;;;;9.85;7.20;;;;;;;5.14;100.00;99675.97;838703;23;856;-52
2021/12/25 00:34:10;;;;;;;9.90;6.82;;;;;;;5.06;100.00;99669.03;840626;23;844;-53
2021/12/25 00:34:30;;;;;;;9.10;6.97;;;;;;;4.99;100.00;99672.50;845285;23;962;-57
2021/12/25 00:34:51;;;;;;;9.30;7.00;;;;;;;5.00;100.00;99663.88;849746;23;856;-54
2021/12/25 00:35:11;;;;;;;10.20;7.37;;;;;;;5.01;100.00;99664.72;846697;23;4413;-55
2021/12/25 00:35:32;;;;;;;10.68;7.75;;;;;;;5.02;100.00;99661.28;843854;23;1420;-56
2021/12/25 00:35:52;;;;;;;11.03;7.90;;;;;;;4.98;100.00;99670.75;845272;23;871;-53
2021/12/25 00:36:17;;;;;;;11.43;8.30;;;;;;;4.97;100.00;99657.81;845395;23;756;-52
2021/12/25 00:36:37;;;;;;;11.00;8.43;;;;;;;4.98;100.00;99667.31;843455;23;1732;-57
2021/12/25 00:36:58;;;;;;;10.80;8.00;;;;;;;4.98;100.00;99667.31;839238;23;1231;-54
2021/12/25 00:37:19;;;;;;;10.47;7.40;;;;;;;4.99;100.00;99659.53;840975;23;877;-52
2021/12/25 00:37:40;;;;;;;7.85;5.80;;;;;;;4.99;100.00;99662.13;845712;23;819;-55
2021/12/25 00:38:01;;;;;;;7.10;5.27;;;;;;;4.98;100.00;99664.72;844837;23;4436;-53
2021/12/25 00:38:21;;;;;;;7.40;5.45;;;;;;;4.94;100.00;99663.84;844178;23;931;-54
2021/12/25 00:38:42;;;;;;;7.53;5.90;;;;;;;4.94;100.00;99663.84;843459;23;1410;-52
2021/12/25 00:39:04;;;;;;;7.20;5.47;;;;;;;4.95;100.00;99660.41;843576;23;793;-55
2021/12/25 00:39:28;;;;;;;7.40;5.47;;;;;;;4.94;100.00;99656.06;846834;23;1235;-57
2021/12/25 00:39:48;;;;;;;6.50;4.70;;;;;;;4.93;100.00;99662.13;848991;23;780;-53
2021/12/25 00:40:09;;;;;;;6.28;4.28;;;;;;;4.93;100.00;99652.63;848333;23;898;-54
2021/12/25 00:40:30;;;;;;;6.05;4.28;;;;;;;4.94;100.00;99658.66;849220;23;899;-57
2021/12/25 00:40:50;;;;;;;5.93;4.40;;;;;;;4.92;100.00;99661.25;846770;23;1236;-54
2021/12/25 00:41:12;;;;;;;6.35;4.40;;;;;;;4.92;100.00;99663.00;846324;23;5057;-53
2021/12/25 00:41:33;;;;;;;7.00;4.68;;;;;;;4.92;100.00;99663.00;849338;23;775;-56
2021/12/25 00:41:54;;;;;;;6.30;4.60;;;;;;;4.94;100.00;99656.94;847320;23;795;-55
2021/12/25 00:42:14;;;;;;;7.30;4.50;;;;;;;4.95;100.00;99661.25;849103;23;775;-53
2021/12/25 00:42:34;;;;;;;7.70;4.65;;;;;;;4.94;100.00;99658.66;842264;23;934;-53
2021/12/25 00:42:55;;;;;;;6.80;4.73;;;;;;;4.92;100.00;99660.41;844440;23;871;-56
2021/12/25 00:43:15;;;;;;;6.50;4.70;;;;;;;4.88;100.00;99661.25;840440;23;816;-56
2021/12/25 00:43:36;;;;;;;6.60;4.95;;;;;;;4.88;100.00;99666.44;839288;23;1201;-55
2021/12/25 00:43:56;;;;;;;6.27;4.70;;;;;;;4.84;100.00;99662.09;843888;23;4303;-53
2021/12/25 00:44:17;;;;;;;5.90;4.50;;;;;;;4.83;100.00;99657.78;841670;23;938;-56
2021/12/25 00:44:38;;;;;;;6.15;4.45;;;;;;;4.83;100.00;99660.38;844026;23;831;-55
2021/12/25 00:44:58;;;;;;;5.93;4.40;;;;;;;4.82;100.00;99658.63;839628;23;1939;-56
2021/12/25 00:45:19;;;;;;;6.10;4.50;;;;;;;4.84;100.00;99662.09;840388;23;871;-55
2021/12/25 00:45:39;;;;;;;6.80;4.63;;;;;;;4.87;100.00;99652.59;839071;23;1283;-54
2021/12/25 00:46:00;;;;;;;6.90;4.80;;;;;;;4.89;100.00;99656.06;838492;23;1341;-52
2021/12/25 00:46:21;;;;;;;6.68;4.63;;;;;;;4.92;100.00;99657.81;842723;23;1341;-55
2021/12/25 00:46:41;;;;;;;5.97;4.40;;;;;;;4.90;100.00;99657.81;846420;23;842;-54
2021/12/25 00:47:02;;;;;;;5.97;4.13;;;;;;;4.97;100.00;99661.28;841224;23;5143;-54
2021/12/25 00:47:23;;;;;;;6.00;4.05;;;;;;;4.92;100.00;99657.81;844162;23;768;-56
2021/12/25 00:47:43;;;;;;;6.32;4.07;;;;;;;4.91;100.00;99661.25;845930;23;847;-55
2021/12/25 00:48:05;;;;;;;5.70;4.20;;;;;;;4.88;100.00;99661.25;844708;23;788;-52
2021/12/25 00:48:25;;;;;;;5.90;4.20;;;;;;;4.85;100.00;99653.47;844089;23;753;-53
2021/12/25 00:48:46;;;;;;;5.93;4.20;;;;;;;4.87;100.00;99654.34;835855;23;887;-56
2021/12/25 00:49:06;;;;;;;5.60;4.00;;;;;;;4.86;100.00;99655.19;842141;23;870;-54
2021/12/25 00:49:27;;;;;;;5.80;3.92;;;;;;;4.87;100.00;99662.09;837870;23;1267;-54
2021/12/25 00:49:47;;;;;;;7.20;3.80;;;;;;;4.87;100.00;99657.78;839336;23;907;-53
2021/12/25 00:50:08;;;;;;;6.85;4.03;;;;;;;4.89;100.00;99660.41;838981;23;4278;-52
2021/12/25 00:50:29;;;;;;;6.50;4.40;;;;;;;4.88;100.00;99648.31;840856;23;859;-53
2021/12/25 00:50:50;;;;;;;6.40;4.20;;;;;;;4.86;100.00;99660.38;843136;23;1622;-53
2021/12/25 00:51:13;;;;;;;6.60;4.27;;;;;;;4.87;100.00;99654.34;840745;23;1296;-55
2021/12/25 00:51:34;;;;;;;7.00;4.38;;;;;;;4.88;100.00;99656.06;840751;23;951;-52
2021/12/25 00:51:56;;;;;;;6.22;4.22;;;;;;;4.88;100.00;99651.75;842024;23;843;-53
2021/12/25 00:52:16;;;;;;;6.13;4.53;;;;;;;4.89;100.00;99655.22;846896;23;1292;-54
2021/12/25 00:52:37;;;;;;;6.47;4.47;;;;;;;4.91;100.00;99653.47;842618;23;1249;-53
2021/12/25 00:52:57;;;;;;;6.63;4.20;;;;;;;4.93;100.00;99656.94;837696;23;4505;-54
2021/12/25 00:53:18;;;;;;;7.43;4.17;;;;;;;4.89;100.00;99650.03;840360;23;1470;-56
2021/12/25 00:53:38;;;;;;;6.47;4.53;;;;;;;4.86;100.00;99650.00;840192;23;892;-52
2021/12/25 00:53:59;;;;;;;5.80;4.10;;;;;;;4.82;100.00;99648.28;837652;23;911;-54
2021/12/25 00:54:20;;;;;;;5.73;4.33;;;;;;;4.80;100.00;99653.44;836996;23;856;-56
2021/12/25 00:54:42;;;;;;;5.85;4.40;;;;;;;4.82;100.00;99650.88;836003;23;871;-55
2021/12/25 00:55:05;;;;;;;6.87;4.30;;;;;;;4.83;100.00;99650.91;836209;23;827;-55
2021/12/25 00:55:25;;;;;;;7.45;4.20;;;;;;;4.84;100.00;99650.00;836105;23;809;-53
2021/12/25 00:55:46;;;;;;;5.43;3.95;;;;;;;4.82;100.00;99646.56;836715;23;1328;-56
2021/12/25 00:56:07;;;;;;;5.65;4.15;;;;;;;4.83;100.00;99647.41;839669;23;4328;-53
2021/12/25 00:56:27;;;;;;;6.30;4.40;;;;;;;4.85;100.00;99648.31;841007;23;813;-55
2021/12/25 00:56:48;;;;;;;5.80;4.00;;;;;;;4.86;100.00;99644.81;842743;23;885;-56
2021/12/25 00:57:09;;;;;;;6.03;4.40;;;;;;;4.81;100.00;99649.16;844642;23;910;-56
2021/12/25 00:57:29;;;;;;;5.80;4.33;;;;;;;4.82;100.00;99649.16;844224;23;975;-53
2021/12/25 00:57:49;;;;;;;5.85;4.20;;;;;;;4.82;100.00;99646.56;844217;23;665;-56
2021/12/25 00:58:10;;;;;;;6.60;4.30;;;;;;;4.77;100.00;99643.94;838870;23;1275;-56
2021/12/25 00:58:33;;;;;;;6.65;4.55;;;;;;;4.76;100.00;99649.13;834339;23;884;-55
2021/12/25 00:58:53;;;;;;;6.18;4.65;;;;;;;4.76;100.00;99646.53;837995;23;4464;-52
2021/12/25 00:59:14;;;;;;;6.55;4.90;;;;;;;4.74;100.00;99646.53;840471;23;772;-53
2021/12/25 00:59:35;;;;;;;6.80;5.30;;;;;;;4.74;100.00;99651.72;840752;23;725;-53
2021/12/25 00:59:55;;;;;;;6.03;4.47;;;;;;;4.77;100.00;99654.31;836593;23;1277;-56
2021/12/25 01:00:16;;;;;;;5.67;4.20;;;;;;;4.80;100.00;99645.69;841021;23;816;-56
2021/12/25 01:00:37;;;;;;;5.87;4.27;;;;;;;4.82;100.00;99658.63;843053;23;1125;-54
2021/12/25 01:00:58;;;;;;;6.15;4.47;;;;;;;4.79;100.00;99656.94;841541;23;1402;-55
2021/12/25 01:01:18;;;;;;;6.45;4.70;;;;;;;4.80;100.00;99660.38;843788;23;1128;-54
2021/12/25 01:01:39;;;;;;;6.07;4.63;;;;;;;4.81;100.00;99654.34;842837;23;1340;-56
2021/12/25 01:02:00;;;;;;;6.53;5.00;;;;;;;4.81;100.00;99654.34;845502;23;4339;-56
2021/12/25 01:02:20;;;;;;;6.78;4.90;;;;;;;4.79;100.00;99659.50;847075;23;1301;-56
2021/12/25 01:02:43;;;;;;;6.17;4.50;;;;;;;4.77;100.00;99654.31;840229;23;1028;-53
2021/12/25 01:03:04;;;;;;;5.90;4.18;;;;;;;4.76;100.00;99655.19;839936;23;1220;-54
2021/12/25 01:03:25;;;;;;;5.95;4.38;;;;;;;4.75;100.00;99662.94;837551;23;1276;-55
2021/12/25 01:03:47;;;;;;;6.88;4.60;;;;;;;4.71;100.00;99658.63;840219;23;828;-57
2021/12/25 01:04:08;;;;;;;6.93;4.30;;;;;;;4.73;100.00;99662.06;838186;23;1039;-52
2021/12/25 01:04:29;;;;;;;7.07;4.88;;;;;;;4.75;100.00;99663.81;844272;23;1176;-56
2021/12/25 01:04:49;;;;;;;6.50;5.00;;;;;;;4.75;100.00;99652.59;842778;23;1946;-53
2021/12/25 01:05:14;;;;;;;6.80;5.43;;;;;;;4.74;100.00;99651.72;837627;23;4944;-52
2021/12/25 01:05:35;;;;;;;7.30;5.47;;;;;;;4.74;100.00;99662.06;834992;23;1244;-57
2021/12/25 01:05:55;;;;;;;7.23;5.67;;;;;;;4.74;100.00;99669.84;842840;23;1345;-56
2021/12/25 01:06:16;;;;;;;7.10;5.83;;;;;;;4.72;100.00;99657.75;840000;23;1038;-54
2021/12/25 01:06:39;;;;;;;7.95;6.85;;;;;;;4.71;100.00;99659.47;830272;23;1281;-53
2021/12/25 01:07:01;;;;;;;8.63;7.25;;;;;;;4.71;100.00;99658.63;827586;23;1080;-55
2021/12/25 01:07:21;;;;;;;8.93;6.95;;;;;;;4.71;100.00;99656.88;830194;23;1051;-53
2021/12/25 01:07:42;;;;;;;8.63;6.90;;;;;;;4.70;100.00;99659.47;838860;23;1192;-54
2021/12/25 01:08:07;;;;;;;8.45;6.80;;;;;;;4.71;100.00;99662.06;839500;23;4430;-54
2021/12/25 01:08:29;;;;;;;8.48;6.50;;;;;;;4.68;100.00;99659.47;837962;23;1248;-53
2021/12/25 01:08:49;;;;;;;8.17;6.83;;;;;;;4.67;100.00;99665.50;839501;23;1232;-54
2021/12/25 01:09:12;;;;;;;8.05;6.05;;;;;;;4.65;100.00;99662.03;838606;23;1313;-53
2021/12/25 01:09:33;;;;;;;6.72;5.07;;;;;;;4.64;100.00;99660.31;836091;23;1268;-52
2021/12/25 01:10:02;;;;;;;9.02;7.03;;;;;;;4.63;100.00;99658.59;835449;23;1509;-55
2021/12/25 01:10:22;;;;;;;9.32;7.00;;;;;;;4.66;100.00;99661.19;834809;23;1275;-55
2021/12/25 01:10:44;;;;;;;8.38;6.40;;;;;;;4.65;100.00;99656.00;838951;23;1323;-53
2021/12/25 01:11:05;;;;;;;7.55;5.90;;;;;;;4.62;100.00;99654.25;839370;23;4334;-55
2021/12/25 01:11:29;;;;;;;7.85;6.15;;;;;;;4.61;100.00;99655.16;839228;23;1522;-53
2021/12/25 01:11:50;;;;;;;6.43;4.88;;;;;;;4.62;100.00;99661.19;839652;23;1394;-57
2021/12/25 01:12:13;;;;;;;6.97;4.78;;;;;;;4.63;100.00;99653.41;839754;23;1503;-53
2021/12/25 01:12:50;;;;;;;6.68;4.90;;;;;;;4.65;100.00;99656.84;835406;23;1658;-52
2021/12/25 01:13:16;;;;;;;7.82;5.88;;;;;;;4.63;100.00;99663.75;835538;23;1534;-53
2021/12/25 01:13:43;;;;;;;8.15;5.60;;;;;;;4.63;100.00;99661.19;841174;23;776;-53
2021/12/25 01:14:22;;;;;;;7.00;5.13;;;;;;;4.65;100.00;99654.25;842251;23;4343;-56
2021/12/25 01:14:58;;;;;;;7.53;5.18;;;;;;;4.69;100.00;99655.16;842953;23;1233;-53
2021/12/25 01:18:58;;;;;;;7.32;5.57;;;;;;;4.67;100.00;99657.75;841788;23;1356;-55
2021/12/25 01:21:04;;;;;;;8.93;6.90;;;;;;;4.73;100.00;99659.47;842484;23;4908;-54
2021/12/25 01:28:10;;;;;;;7.22;5.82;;;;;;;4.67;100.00;99659.47;847053;23;1397;-55
2021/12/25 01:29:15;;;;;;;7.07;5.40;;;;;;;4.72;100.00;99658.63;847090;23;1271;-56
2021/12/25 01:29:45;;;;;;;7.43;5.43;;;;;;;4.71;100.00;99656.03;842309;23;5328;-53
2021/12/25 01:31:14;;;;;;;6.50;4.90;;;;;;;4.65;100.00;99662.03;831394;23;1194;-55
2021/12/25 01:31:44;;;;;;;6.78;4.78;;;;;;;4.63;100.00;99656.00;835235;23;1505;-57
2021/12/25 01:32:42;;;;;;;6.20;4.62;;;;;;;4.64;100.00;99665.50;829419;23;4368;-57
2021/12/25 01:35:57;;;;;;;6.63;4.95;;;;;;;4.63;100.00;99655.16;842070;23;4944;-57
2021/12/25 01:36:47;;;;;;;7.15;5.22;;;;;;;4.66;100.00;99655.16;843161;23;1328;-53
2021/12/25 01:38:23;;;;;;;7.35;5.93;;;;;;;4.63;100.00;99653.41;842898;23;814;-54
2021/12/25 01:39:28;;;;;;;6.68;5.00;;;;;;;4.72;100.00;99653.44;844649;23;659;-56
2021/12/25 01:40:48;;;;;;;6.15;4.70;;;;;;;4.76;100.00;99649.13;844122;23;684;-56
2021/12/25 01:48:05;;;;;;;7.10;5.20;;;;;;;4.69;100.00;99653.41;848406;23;1271;-54
2021/12/25 01:48:27;;;;;;;6.68;5.07;;;;;;;4.71;100.00;99656.88;842083;23;1601;-53
2021/12/25 01:48:47;;;;;;;7.30;5.15;;;;;;;4.71;100.00;99656.03;840328;23;1276;-55
2021/12/25 01:49:08;;;;;;;9.63;6.90;;;;;;;4.70;100.00;99657.75;841174;23;749;-54
2021/12/25 01:49:28;;;;;;;12.77;9.47;;;;;;;4.68;100.00;99654.28;846542;23;765;-58
2021/12/25 01:49:49;;;;;;;12.33;8.93;;;;;;;4.69;100.00;99656.00;845325;23;827;-56
2021/12/25 01:50:10;;;;;;;12.10;8.60;;;;;;;4.68;100.00;99651.72;843833;23;4491;-54
2021/12/25 01:50:30;;;;;;;14.25;10.07;;;;;;;4.67;100.00;99660.31;840358;23;1440;-56
2021/12/25 01:50:52;;;;;;;11.95;8.95;;;;;;;4.67;100.00;99662.06;840986;23;1264;-57
2021/12/25 01:51:13;;;;;;;10.25;8.00;;;;;;;4.66;100.00;99661.19;840336;23;1202;-56
2021/12/25 01:51:34;;;;;;;10.73;8.10;;;;;;;4.66;100.00;99661.19;840700;23;1374;-55
2021/12/25 01:51:55;;;;;;;10.00;7.50;;;;;;;4.63;100.00;99661.19;843494;23;1799;-55
2021/12/25 01:52:15;;;;;;;10.00;7.68;;;;;;;4.63;100.00;99662.91;844589;23;1861;-54
2021/12/25 01:52:36;;;;;;;8.93;6.63;;;;;;;4.63;100.00;99663.75;835455;23;1358;-56
2021/12/25 01:52:57;;;;;;;10.30;7.45;;;;;;;4.63;100.00;99657.72;836499;23;4439;-55
2021/12/25 01:53:18;;;;;;;13.50;9.95;;;;;;;4.63;100.00;99658.59;836082;23;877;-56
2021/12/25 01:53:38;;;;;;;15.33;11.47;;;;;;;4.62;100.00;99662.03;837287;23;892;-53
2021/12/25 01:53:59;;;;;;;13.63;10.00;;;;;;;4.62;100.00;99661.19;842358;23;1295;-56
2021/12/25 01:54:19;;;;;;;12.70;9.73;;;;;;;4.61;100.00;99662.91;842498;23;872;-57
2021/12/25 01:54:40;;;;;;;11.82;8.88;;;;;;;4.64;100.00;99659.44;843866;23;859;-55
2021/12/25 01:55:08;;;;;;;10.82;7.80;;;;;;;4.67;100.00;99664.66;844324;23;935;-57
2021/12/25 01:55:30;;;;;;;9.38;7.22;;;;;;;4.65;100.00;99669.78;842991;23;1239;-54
2021/12/25 01:55:50;;;;;;;10.53;7.27;;;;;;;4.64;100.00;99662.91;843624;23;1424;-54
2021/12/25 01:56:12;;;;;;;10.32;7.63;;;;;;;4.65;100.00;99656.84;842406;23;4342;-54
2021/12/25 01:56:32;;;;;;;10.35;7.35;;;;;;;4.66;100.00;99660.31;844227;23;1982;-55
2021/12/25 01:56:53;;;;;;;10.17;7.03;;;;;;;4.63;100.00;99658.59;839390;23;1197;-57
2021/12/25 01:57:13;;;;;;;8.23;5.45;;;;;;;4.62;100.00;99659.44;840113;23;1354;-57
2021/12/25 01:57:34;;;;;;;6.70;4.60;;;;;;;4.59;100.00;99657.69;841139;23;937;-55
2021/12/25 01:57:57;;;;;;;6.13;4.53;;;;;;;4.58;100.00;99665.47;840123;23;1265;-57
2021/12/25 01:58:18;;;;;;;7.05;5.05;;;;;;;4.57;100.00;99661.16;840047;23;1184;-57
2021/12/25 01:58:38;;;;;;;7.00;5.30;;;;;;;4.59;100.00;99657.69;840341;23;1260;-54
2021/12/25 01:58:58;;;;;;;7.57;5.37;;;;;;;4.61;100.00;99662.91;842958;23;4480;-57
2021/12/25 01:59:19;;;;;;;7.22;5.10;;;;;;;4.63;100.00;99657.72;831970;23;1162;-55
2021/12/25 01:59:40;;;;;;;7.60;5.35;;;;;;;4.63;100.00;99658.59;827340;23;1409;-53
2021/12/25 02:00:03;;;;;;;6.50;4.77;;;;;;;4.63;100.00;99658.59;831154;23;1209;-54
2021/12/25 02:00:27;;;;;;;6.55;4.88;;;;;;;4.63;100.00;99661.19;836507;23;1310;-56
2021/12/25 02:00:51;;;;;;;6.70;5.00;;;;;;;4.65;100.00;99662.03;835803;23;828;-53
2021/12/25 02:01:12;;;;;;;6.40;4.80;;;;;;;4.63;100.00;99662.91;840398;23;1349;-53
2021/12/25 02:01:33;;;;;;;6.43;4.80;;;;;;;4.62;100.00;99656.84;844808;23;1045;-53
2021/12/25 02:01:53;;;;;;;6.70;4.80;;;;;;;4.59;100.00;99660.28;842375;23;4404;-54
2021/12/25 02:02:15;;;;;;;6.20;4.27;;;;;;;4.60;100.00;99658.59;837832;23;1456;-54
2021/12/25 02:02:35;;;;;;;6.05;4.43;;;;;;;4.57;100.00;99662.03;836621;23;863;-54
2021/12/25 02:02:56;;;;;;;6.33;4.53;;;;;;;4.60;100.00;99658.59;836722;23;919;-57
2021/12/25 02:03:21;;;;;;;6.10;4.50;;;;;;;4.60;100.00;99659.44;843394;23;1194;-58
2021/12/25 02:03:42;;;;;;;6.00;4.50;;;;;;;4.62;100.00;99653.41;840391;23;1331;-56
2021/12/25 02:04:03;;;;;;;6.05;4.40;;;;;;;4.63;100.00;99655.16;837364;23;1552;-57
2021/12/25 02:04:23;;;;;;;6.27;4.77;;;;;;;4.70;100.00;99655.16;835149;23;1176;-55
2021/12/25 02:04:44;;;;;;;6.22;4.60;;;;;;;4.74;100.00;99654.31;835848;23;1148;-56
2021/12/25 02:05:05;;;;;;;6.67;4.43;;;;;;;4.74;100.00;99656.03;833354;23;4590;-54
2021/12/25 02:05:25;;;;;;;6.32;4.50;;;;;;;4.76;100.00;99662.06;832628;23;1060;-54
2021/12/25 02:05:46;;;;;;;6.30;4.65;;;;;;;4.73;100.00;99655.16;836329;23;812;-55
2021/12/25 02:06:09;;;;;;;6.25;4.63;;;;;;;4.70;100.00;99655.16;839930;23;1344;-57
2021/12/25 02:06:29;;;;;;;6.47;4.65;;;;;;;4.68;100.00;99654.28;840394;23;1216;-55
2021/12/25 02:06:50;;;;;;;7.20;4.87;;;;;;;4.72;100.00;99653.44;843223;23;1369;-53
2021/12/25 02:07:11;;;;;;;6.75;4.60;;;;;;;4.86;100.00;99652.59;838893;23;1565;-53
2021/12/25 02:07:31;;;;;;;6.60;4.80;;;;;;;4.90;100.00;99654.34;838171;23;1754;-56
2021/12/25 02:07:52;;;;;;;6.32;4.80;;;;;;;4.87;100.00;99654.34;834860;23;5459;-54
2021/12/25 02:08:13;;;;;;;6.80;4.50;;;;;;;4.84;100.00;99651.75;836559;23;932;-54
2021/12/25 02:08:33;;;;;;;6.80;4.50;;;;;;;4.82;100.00;99648.28;837870;23;1218;-55
2021/12/25 02:08:55;;;;;;;6.55;4.65;;;;;;;4.83;100.00;99656.06;837174;23;1302;-56
2021/12/25 02:09:16;;;;;;;6.77;4.77;;;;;;;4.81;100.00;99650.00;839734;23;1196;-53
2021/12/25 02:09:37;;;;;;;6.50;4.70;;;;;;;4.81;100.00;99655.19;836232;23;1066;-53
2021/12/25 02:09:58;;;;;;;6.57;4.60;;;;;;;4.81;100.00;99655.19;836638;23;1523;-53
2021/12/25 02:10:19;;;;;;;6.60;4.60;;;;;;;4.81;100.00;99662.09;833820;23;2202;-54
2021/12/25 02:10:42;;;;;;;6.82;4.60;;;;;;;4.80;100.00;99660.38;838706;23;1312;-53
2021/12/25 02:11:03;;;;;;;6.63;4.60;;;;;;;4.79;100.00;99659.50;837435;23;4327;-55
2021/12/25 02:11:25;;;;;;;6.57;4.60;;;;;;;4.75;100.00;99661.22;836852;23;1963;-53
2021/12/25 02:11:46;;;;;;;8.00;5.90;;;;;;;4.70;100.00;99652.56;838634;23;1695;-55
2021/12/25 02:12:08;;;;;;;8.60;6.43;;;;;;;4.68;100.00;99650.81;840059;23;1180;-56
2021/12/25 02:12:28;;;;;;;9.40;6.72;;;;;;;4.66;100.00;99657.75;838878;23;891;-56
2021/12/25 02:12:49;;;;;;;10.03;6.93;;;;;;;4.66;100.00;99652.56;841175;23;752;-58
2021/12/25 02:13:11;;;;;;;8.77;6.05;;;;;;;4.67;100.00;99659.47;841683;23;777;-54
2021/12/25 02:13:32;;;;;;;7.65;5.45;;;;;;;4.68;100.00;99654.28;839179;23;910;-56
2021/12/25 02:13:54;;;;;;;8.18;5.55;;;;;;;4.69;100.00;99656.00;840053;23;5155;-55
2021/12/25 02:14:15;;;;;;;8.07;5.80;;;;;;;4.69;100.00;99650.81;839210;23;1599;-56
2021/12/25 02:14:38;;;;;;;8.00;5.60;;;;;;;4.71;100.00;99654.31;833911;23;1350;-55
2021/12/25 02:15:07;;;;;;;7.65;5.68;;;;;;;4.69;100.00;99647.38;835521;23;1306;-54
2021/12/25 02:15:29;;;;;;;8.60;6.18;;;;;;;4.68;100.00;99648.25;835500;23;1324;-56
2021/12/25 02:16:01;;;;;;;7.90;5.68;;;;;;;4.68;100.00;99653.41;836312;23;1327;-54
2021/12/25 02:16:26;;;;;;;8.13;5.90;;;;;;;4.67;100.00;99652.56;837290;23;1435;-58
2021/12/25 02:17:03;;;;;;;8.60;6.28;;;;;;;4.65;100.00;99651.69;835124;23;4372;-55